createdAt,value
2018-05-01T09:11:36.510Z,13.68
2018-05-01T09:12:37.283Z,13.53
2018-05-01T09:13:37.969Z,13.67
2018-05-01T09:14:38.661Z,13.81
2018-05-01T09:15:39.364Z,13.70
2018-05-01T09:16:40.050Z,13.92
2018-05-01T09:17:40.739Z,13.97
2018-05-01T09:18:41.410Z,14.11
2018-05-01T09:19:42.085Z,14.11
2018-05-01T09:20:42.768Z,14.03
2018-05-01T09:21:43.489Z,14.17
2018-05-01T09:22:44.125Z,14.23
2018-05-01T09:23:44.815Z,14.43
2018-05-01T09:24:45.489Z,14.37
2018-05-01T09:25:46.169Z,14.45
2018-05-01T09:26:46.850Z,14.43
2018-05-01T09:27:47.552Z,14.41
2018-05-01T09:28:48.229Z,14.22
2018-05-01T09:29:48.908Z,14.29
2018-05-01T09:30:49.590Z,14.43
2018-05-01T09:31:50.280Z,14.53
2018-05-01T09:32:50.959Z,14.44
2018-05-01T09:33:51.639Z,14.30
2018-05-01T09:34:52.315Z,14.44
2018-05-01T09:35:53.000Z,14.41
2018-05-01T09:36:53.678Z,13.89
2018-05-01T09:37:54.361Z,14.14
2018-05-01T09:38:55.039Z,14.15
2018-05-01T09:39:55.733Z,14.17
2018-05-01T09:40:56.416Z,13.81
2018-05-01T09:41:57.109Z,14.03
2018-05-01T09:42:57.803Z,14.20
2018-05-01T09:43:58.477Z,14.25
2018-05-01T09:44:59.160Z,13.99
2018-05-01T09:45:59.850Z,13.86
2018-05-01T09:47:00.528Z,14.14
2018-05-01T09:48:01.216Z,14.11
2018-05-01T09:49:01.896Z,14.15
2018-05-01T09:50:02.582Z,14.03
2018-05-01T09:51:03.276Z,14.11
2018-05-01T09:52:03.953Z,14.22
2018-05-01T09:53:04.645Z,14.32
2018-05-01T09:54:05.331Z,14.17
2018-05-01T09:55:06.012Z,14.26
2018-05-01T09:56:06.699Z,14.37
2018-05-01T09:57:07.380Z,14.41
2018-05-01T09:58:08.055Z,14.41
2018-05-01T09:59:08.741Z,14.53
2018-05-01T10:00:09.418Z,14.47
2018-05-01T10:01:10.096Z,14.69
2018-05-01T10:02:10.782Z,14.63
2018-05-01T10:03:11.458Z,14.72
2018-05-01T10:04:12.136Z,14.62
2018-05-01T10:05:12.833Z,14.53
2018-05-01T10:06:13.519Z,14.33
2018-05-01T10:07:14.199Z,14.48
2018-05-01T10:08:14.884Z,14.47
2018-05-01T10:09:15.568Z,14.12
2018-05-01T10:10:16.242Z,14.12
2018-05-01T10:11:16.917Z,14.22
2018-05-01T10:12:17.665Z,14.23
2018-05-01T10:13:18.277Z,14.29
2018-05-01T10:14:18.952Z,14.44
2018-05-01T10:15:19.633Z,14.32
2018-05-01T10:16:20.314Z,14.36
2018-05-01T10:17:20.997Z,14.20
2018-05-01T10:18:21.678Z,14.20
2018-05-01T10:19:22.361Z,14.26
2018-05-01T10:20:23.051Z,14.35
2018-05-01T10:21:23.735Z,14.47
2018-05-01T10:22:24.419Z,14.54
2018-05-01T10:23:25.099Z,14.55
2018-05-01T10:24:25.790Z,14.86
2018-05-01T10:25:26.481Z,14.86
2018-05-01T10:26:27.163Z,15.03
2018-05-01T10:27:27.841Z,15.09
2018-05-01T10:28:28.520Z,15.10
2018-05-01T10:29:29.213Z,15.24
2018-05-01T10:30:29.955Z,15.27
2018-05-01T10:31:30.568Z,15.31
2018-05-01T10:32:31.252Z,15.22
2018-05-01T10:33:31.929Z,15.22
2018-05-01T10:34:32.607Z,15.44
2018-05-01T10:35:33.291Z,15.19
2018-05-01T10:36:33.969Z,15.51
2018-05-01T10:37:34.655Z,15.76
2018-05-01T10:38:35.398Z,15.42
2018-05-01T10:39:36.026Z,15.10
2018-05-01T10:40:36.700Z,15.21
2018-05-01T10:41:37.392Z,15.46
2018-05-01T10:42:38.068Z,15.70
2018-05-01T10:43:38.746Z,15.94
2018-05-01T10:44:39.440Z,15.54
2018-05-01T10:45:40.135Z,15.52
2018-05-01T10:46:40.812Z,15.51
2018-05-01T10:47:41.495Z,15.70
2018-05-01T10:48:42.200Z,15.61
2018-05-01T10:49:42.880Z,15.61
2018-05-01T10:50:43.560Z,16.05
2018-05-01T10:51:44.243Z,16.33
2018-05-01T10:52:44.924Z,16.43
2018-05-01T10:53:45.609Z,16.87
2018-05-01T10:54:46.317Z,17.05
2018-05-01T10:55:46.984Z,17.31
2018-05-01T10:56:47.674Z,17.67
2018-05-01T10:57:48.352Z,17.39
2018-05-01T10:58:49.053Z,17.64
2018-05-01T10:59:49.730Z,17.38
2018-05-01T11:00:50.417Z,17.33
2018-05-01T11:01:51.096Z,17.68
2018-05-01T11:02:51.779Z,17.71
2018-05-01T11:03:52.464Z,17.76
2018-05-01T11:04:53.149Z,17.60
2018-05-01T11:05:53.828Z,17.76
2018-05-01T11:06:54.516Z,17.74
2018-05-01T11:07:55.198Z,17.67
2018-05-01T11:08:55.883Z,17.39
2018-05-01T11:09:56.563Z,17.26
2018-05-01T11:10:57.244Z,17.19
2018-05-01T11:11:57.959Z,17.41
2018-05-01T11:12:58.608Z,17.41
2018-05-01T11:13:59.290Z,17.20
2018-05-01T11:14:59.967Z,17.11
2018-05-01T11:16:00.649Z,17.05
2018-05-01T11:17:01.330Z,17.29
2018-05-01T11:18:02.040Z,17.23
2018-05-01T11:19:02.749Z,16.93
2018-05-01T11:20:03.427Z,16.90
2018-05-01T11:21:04.109Z,16.96
2018-05-01T11:22:04.787Z,17.16
2018-05-01T11:23:05.472Z,17.41
2018-05-01T11:24:06.159Z,17.30
2018-05-01T11:25:06.846Z,17.42
2018-05-01T11:26:07.587Z,17.70
2018-05-01T11:27:08.213Z,17.80
2018-05-01T11:28:08.905Z,18.03
2018-05-01T11:29:09.584Z,17.94
2018-05-01T11:30:10.276Z,18.26
2018-05-01T11:31:10.972Z,18.59
2018-05-01T11:32:11.661Z,18.56
2018-05-01T11:33:12.348Z,18.74
2018-05-01T11:34:13.046Z,18.96
2018-05-01T11:35:13.728Z,19.64
2018-05-01T11:36:14.410Z,20.21
2018-05-01T11:37:15.088Z,20.51
2018-05-01T11:38:15.785Z,20.77
2018-05-01T11:39:16.461Z,20.55
2018-05-01T11:40:17.150Z,20.19
2018-05-01T11:41:17.832Z,19.69
2018-05-01T11:42:18.519Z,19.81
2018-05-01T11:43:19.201Z,20.19
2018-05-01T11:44:19.888Z,20.70
2018-05-01T11:45:20.577Z,21.30
2018-05-01T11:46:21.327Z,21.72
2018-05-01T11:47:21.949Z,22.00
2018-05-01T11:48:22.635Z,21.50
2018-05-01T11:49:23.314Z,21.14
2018-05-01T11:50:24.004Z,20.84
2018-05-01T11:51:24.706Z,21.20
2018-05-01T11:52:25.378Z,21.46
2018-05-01T11:53:26.058Z,21.62
2018-05-01T11:54:26.744Z,21.67
2018-05-01T11:55:27.435Z,21.46
2018-05-01T11:56:28.118Z,20.96
2018-05-01T11:57:28.799Z,21.00
2018-05-01T11:58:29.479Z,21.52
2018-05-01T11:59:30.170Z,22.14
2018-05-01T12:00:30.876Z,22.25
2018-05-01T12:01:31.559Z,22.02
2018-05-01T12:02:32.305Z,22.60
2018-05-01T12:03:32.929Z,22.59
2018-05-01T12:04:33.638Z,22.48
2018-05-01T12:05:34.301Z,22.48
2018-05-01T12:06:34.997Z,22.69
2018-05-01T12:07:35.685Z,22.98
2018-05-01T12:08:36.363Z,23.06
2018-05-01T12:09:37.055Z,23.24
2018-05-01T12:10:37.816Z,22.54
2018-05-01T12:11:38.436Z,22.47
2018-05-01T12:12:39.140Z,22.70
2018-05-01T12:13:39.823Z,22.20
2018-05-01T12:14:40.507Z,22.22
2018-05-01T12:15:41.270Z,22.18
2018-05-01T12:16:41.880Z,22.45
2018-05-01T12:17:42.564Z,22.57
2018-05-01T12:18:43.246Z,22.47
2018-05-01T12:19:43.925Z,22.22
2018-05-01T12:20:44.605Z,22.22
2018-05-01T12:21:45.296Z,21.85
2018-05-01T12:22:45.973Z,21.75
2018-05-01T12:23:46.732Z,21.67
2018-05-01T12:24:47.352Z,21.48
2018-05-01T12:25:48.039Z,21.48
2018-05-01T12:26:48.725Z,21.27
2018-05-01T12:27:49.408Z,21.25
2018-05-01T12:28:50.102Z,21.32
2018-05-01T12:29:50.781Z,21.27
2018-05-01T12:30:51.460Z,21.22
2018-05-01T12:31:52.142Z,20.84
2018-05-01T12:32:52.827Z,20.09
2018-05-01T12:33:53.508Z,20.58
2018-05-01T12:34:54.206Z,20.77
2018-05-01T12:35:54.900Z,20.63
2018-05-01T12:36:55.602Z,20.56
2018-05-01T12:37:56.261Z,20.50
2018-05-01T12:38:56.951Z,20.39
2018-05-01T12:39:57.646Z,20.16
2018-05-01T12:40:58.330Z,20.14
2018-05-01T12:41:59.013Z,20.25
2018-05-01T12:42:59.697Z,20.37
2018-05-01T12:44:00.382Z,20.36
2018-05-01T12:45:01.064Z,19.85
2018-05-01T12:46:01.751Z,20.02
2018-05-01T12:47:02.433Z,20.59
2018-05-01T12:48:03.115Z,21.14
2018-05-01T12:49:03.796Z,21.42
2018-05-01T12:50:04.485Z,21.83
2018-05-01T12:51:05.165Z,22.06
2018-05-01T12:52:05.853Z,22.20
2018-05-01T12:53:06.532Z,21.35
2018-05-01T12:54:07.223Z,21.57
2018-05-01T12:55:07.896Z,21.76
2018-05-01T12:56:08.588Z,22.04
2018-05-01T12:57:09.261Z,22.28
2018-05-01T12:58:09.949Z,22.65
2018-05-01T12:59:10.716Z,22.87
2018-05-01T13:00:11.332Z,22.59
2018-05-01T13:01:12.014Z,22.62
2018-05-01T13:02:12.696Z,22.78
2018-05-01T13:03:13.388Z,22.60
2018-05-01T13:04:14.074Z,22.54
2018-05-01T13:05:14.812Z,22.81
2018-05-01T13:06:15.456Z,23.02
2018-05-01T13:07:16.141Z,22.99
2018-05-01T13:08:16.831Z,22.60
2018-05-01T13:09:17.517Z,22.73
2018-05-01T13:10:18.204Z,23.05
2018-05-01T13:11:18.899Z,23.46
2018-05-01T13:12:19.591Z,23.44
2018-05-01T13:13:20.285Z,23.32
2018-05-01T13:14:20.970Z,22.68
2018-05-01T13:15:21.652Z,23.34
2018-05-01T13:16:22.381Z,23.56
2018-05-01T13:17:23.076Z,23.68
2018-05-01T13:18:23.770Z,24.08
2018-05-01T13:19:24.455Z,24.11
2018-05-01T13:20:25.139Z,24.43
2018-05-01T13:21:25.789Z,24.60
2018-05-01T13:22:26.487Z,25.14
2018-05-01T13:23:27.187Z,24.85
2018-05-01T13:24:27.877Z,24.48
2018-05-01T13:25:28.573Z,25.33
2018-05-01T13:26:29.264Z,26.31
2018-05-01T13:27:29.950Z,26.73
2018-05-01T13:28:30.641Z,26.83
2018-05-01T13:29:31.326Z,26.93
2018-05-01T13:30:32.022Z,27.52
2018-05-01T13:31:32.710Z,28.79
2018-05-01T13:32:33.476Z,30.03
2018-05-01T13:33:34.094Z,31.64
2018-05-01T13:34:34.795Z,33.37
2018-05-01T13:35:35.491Z,34.99
2018-05-01T13:36:36.186Z,35.39
2018-05-01T13:37:36.872Z,34.57
2018-05-01T13:38:37.564Z,34.96
2018-05-01T13:39:38.260Z,36.61
2018-05-01T13:40:38.954Z,36.96
2018-05-01T13:41:39.641Z,34.67
2018-05-01T13:42:40.329Z,33.71
2018-05-01T13:43:41.033Z,33.94
2018-05-01T13:44:41.735Z,34.17
2018-05-01T13:45:42.433Z,32.95
2018-05-01T13:46:43.119Z,30.70
2018-05-01T13:47:43.810Z,30.24
2018-05-01T13:48:44.505Z,29.78
2018-05-01T13:49:45.189Z,28.42
2018-05-01T13:50:45.884Z,28.19
2018-05-01T13:51:46.566Z,27.87
2018-05-01T13:52:47.262Z,27.49
2018-05-01T13:53:47.964Z,27.39
2018-05-01T13:54:48.655Z,26.88
2018-05-01T13:55:49.347Z,27.73
2018-05-01T13:56:50.054Z,28.51
2018-05-01T13:57:50.739Z,28.25
2018-05-01T13:58:51.422Z,28.37
2018-05-01T13:59:52.114Z,28.00
2018-05-01T14:00:52.799Z,28.37
2018-05-01T14:01:53.487Z,28.11
2018-05-01T14:02:54.174Z,27.63
2018-05-01T14:03:54.868Z,26.93
2018-05-01T14:04:55.553Z,25.75
2018-05-01T14:05:56.247Z,25.26
2018-05-01T14:06:56.933Z,25.22
2018-05-01T14:07:57.632Z,24.96
2018-05-01T14:08:58.321Z,26.16
2018-05-01T14:09:59.012Z,28.32
2018-05-01T14:10:59.721Z,30.35
2018-05-01T14:12:00.408Z,31.80
2018-05-01T14:13:01.095Z,33.76
2018-05-01T14:14:01.783Z,35.39
2018-05-01T14:15:02.479Z,37.14
2018-05-01T14:16:03.163Z,38.89
2018-05-01T14:17:03.866Z,40.77
2018-05-01T14:18:04.559Z,41.60
2018-05-01T14:19:05.246Z,41.78
2018-05-01T14:20:05.933Z,41.16
2018-05-01T14:21:06.638Z,40.50
2018-05-01T14:22:07.368Z,39.86
2018-05-01T14:23:08.061Z,38.95
2018-05-01T14:24:08.750Z,38.61
2018-05-01T14:25:09.444Z,37.14
2018-05-01T14:26:10.138Z,34.66
2018-05-01T14:27:10.829Z,33.87
2018-05-01T14:28:11.519Z,33.12
2018-05-01T14:29:12.215Z,32.09
2018-05-01T14:30:12.890Z,32.49
2018-05-01T14:31:13.597Z,33.36
2018-05-01T14:32:14.284Z,33.28
2018-05-01T14:33:14.983Z,34.43
2018-05-01T14:34:15.678Z,35.07
2018-05-01T14:35:16.366Z,36.54
2018-05-01T14:36:17.052Z,37.84
2018-05-01T14:37:17.753Z,39.85
2018-05-01T14:38:18.448Z,38.71
2018-05-01T14:39:19.137Z,39.59
2018-05-01T14:40:19.844Z,40.31
2018-05-01T14:41:20.532Z,40.78
2018-05-01T14:42:21.232Z,41.74
2018-05-01T14:43:21.925Z,42.67
2018-05-01T14:44:22.630Z,41.00
2018-05-01T14:45:23.319Z,38.79
2018-05-01T14:46:24.015Z,40.00
2018-05-01T14:47:24.713Z,39.48
2018-05-01T14:48:25.405Z,39.97
2018-05-01T14:49:26.098Z,39.51
2018-05-01T14:50:26.800Z,37.89
2018-05-01T14:51:27.493Z,37.84
2018-05-01T14:52:28.183Z,38.86
2018-05-01T14:53:28.892Z,38.55
2018-05-01T14:54:29.593Z,39.71
2018-05-01T14:55:30.290Z,39.17
2018-05-01T14:56:30.981Z,36.72
2018-05-01T14:57:31.723Z,36.47
2018-05-01T14:58:32.417Z,37.39
2018-05-01T14:59:33.111Z,37.68
2018-05-01T15:00:33.817Z,37.45
2018-05-01T15:01:34.552Z,37.97
2018-05-01T15:02:35.202Z,38.24
2018-05-01T15:03:35.905Z,37.77
2018-05-01T15:04:36.605Z,35.90
2018-05-01T15:05:37.297Z,34.96
2018-05-01T15:06:37.991Z,34.39
2018-05-01T15:07:38.695Z,33.92
2018-05-01T15:08:39.384Z,32.65
2018-05-01T15:09:40.077Z,31.59
2018-05-01T15:10:40.781Z,30.92
2018-05-01T15:11:41.463Z,31.62
2018-05-01T15:12:42.163Z,31.37
2018-05-01T15:13:42.858Z,29.94
2018-05-01T15:14:43.557Z,27.96
2018-05-01T15:15:44.247Z,28.51
2018-05-01T15:16:44.939Z,28.27
2018-05-01T15:17:45.624Z,29.45
2018-05-01T15:18:46.321Z,28.38
2018-05-01T15:19:47.002Z,28.48
2018-05-01T15:20:47.698Z,28.15
2018-05-01T15:21:48.286Z,29.34
2018-05-01T15:22:49.075Z,30.00
2018-05-01T15:23:49.788Z,30.08
2018-05-01T15:24:50.475Z,30.05
2018-05-01T15:25:51.161Z,29.90
2018-05-01T15:26:51.857Z,30.43
2018-05-01T15:27:52.604Z,31.06
2018-05-01T15:28:53.282Z,31.36
2018-05-01T15:29:54.001Z,31.64
2018-05-01T15:30:54.667Z,31.76
2018-05-01T15:31:55.353Z,31.90
2018-05-01T15:32:56.051Z,32.21
2018-05-01T15:33:56.746Z,32.73
2018-05-01T15:34:57.452Z,32.67
2018-05-01T15:35:58.148Z,32.48
2018-05-01T15:36:58.841Z,32.80
2018-05-01T15:37:59.534Z,32.64
2018-05-01T15:39:00.228Z,32.43
2018-05-01T15:40:00.909Z,32.46
2018-05-01T15:41:01.605Z,32.41
2018-05-01T15:42:02.315Z,32.26
2018-05-01T15:43:02.987Z,32.41
2018-05-01T15:44:03.677Z,31.93
2018-05-01T15:45:04.436Z,31.69
2018-05-01T15:46:05.064Z,31.51
2018-05-01T15:47:05.748Z,31.43
2018-05-01T15:48:06.457Z,30.87
2018-05-01T15:49:07.158Z,30.54
2018-05-01T15:50:07.921Z,30.66
2018-05-01T15:51:08.545Z,30.53
2018-05-01T15:52:09.248Z,29.72
2018-05-01T15:53:09.960Z,29.59
2018-05-01T15:54:10.589Z,28.97
2018-05-01T15:55:11.334Z,28.04
2018-05-01T15:56:12.024Z,28.00
2018-05-01T15:57:12.712Z,27.48
2018-05-01T15:58:13.418Z,27.45
2018-05-01T15:59:14.193Z,27.70
2018-05-01T16:00:14.887Z,28.00
2018-05-01T16:01:15.579Z,27.87
2018-05-01T16:02:16.273Z,27.92
2018-05-01T16:03:16.961Z,27.60
2018-05-01T16:04:17.650Z,27.12
2018-05-01T16:05:18.337Z,27.11
2018-05-01T16:06:19.024Z,27.29
2018-05-01T16:07:19.709Z,27.29
2018-05-01T16:08:20.393Z,27.18
2018-05-01T16:09:21.080Z,27.40
2018-05-01T16:10:21.768Z,26.95
2018-05-01T16:11:22.455Z,26.84
2018-05-01T16:12:23.140Z,26.99
2018-05-01T16:13:23.825Z,27.10
2018-05-01T16:14:24.522Z,27.35
2018-05-01T16:15:25.212Z,27.27
2018-05-01T16:16:25.910Z,27.47
2018-05-01T16:17:26.600Z,27.29
2018-05-01T16:18:27.288Z,27.37
2018-05-01T16:19:27.974Z,27.60
2018-05-01T16:20:28.660Z,27.73
2018-05-01T16:21:29.346Z,27.68
2018-05-01T16:22:30.036Z,26.95
2018-05-01T16:23:30.728Z,27.29
2018-05-01T16:24:31.421Z,26.89
2018-05-01T16:25:32.099Z,26.56
2018-05-01T16:26:32.803Z,26.44
2018-05-01T16:27:33.504Z,26.19
2018-05-01T16:28:34.197Z,25.58
2018-05-01T16:29:34.885Z,25.48
2018-05-01T16:30:35.577Z,25.13
2018-05-01T16:31:36.275Z,25.68
2018-05-01T16:32:36.964Z,25.51
2018-05-01T16:33:37.652Z,25.72
2018-05-01T16:34:38.345Z,25.80
2018-05-01T16:35:39.027Z,25.98
2018-05-01T16:36:39.715Z,25.85
2018-05-01T16:37:40.413Z,25.78
2018-05-01T16:38:41.115Z,25.83
2018-05-01T16:39:41.803Z,25.72
2018-05-01T16:40:42.489Z,25.77
2018-05-01T16:41:43.190Z,25.68
2018-05-01T16:42:43.887Z,25.70
2018-05-01T16:43:44.592Z,25.53
2018-05-01T16:44:45.278Z,25.53
2018-05-01T16:45:45.957Z,25.60
2018-05-01T16:46:46.655Z,25.85
2018-05-01T16:47:47.343Z,25.65
2018-05-01T16:48:48.032Z,25.32
2018-05-01T16:49:48.720Z,25.55
2018-05-01T16:50:49.400Z,25.65
2018-05-01T16:51:50.091Z,25.84
2018-05-01T16:52:50.783Z,26.10
2018-05-01T16:53:51.492Z,25.81
2018-05-01T16:54:52.183Z,25.87
2018-05-01T16:55:52.871Z,26.16
2018-05-01T16:56:53.573Z,26.51
2018-05-01T16:57:54.255Z,26.70
2018-05-01T16:58:54.958Z,26.88
2018-05-01T16:59:55.644Z,25.72
2018-05-01T17:00:56.367Z,25.90
2018-05-01T17:01:57.061Z,26.09
2018-05-01T17:02:57.757Z,25.65
2018-05-01T17:03:58.450Z,25.75
2018-05-01T17:04:59.145Z,25.31
2018-05-01T17:05:59.842Z,25.53
2018-05-01T17:07:00.547Z,25.51
2018-05-01T17:08:01.232Z,25.08
2018-05-01T17:09:01.919Z,24.65
2018-05-01T17:10:02.610Z,24.06
2018-05-01T17:11:03.301Z,24.11
2018-05-01T17:12:03.987Z,23.99
2018-05-01T17:13:04.695Z,23.06
2018-05-01T17:14:05.389Z,23.02
2018-05-01T17:15:06.069Z,22.38
2018-05-01T17:16:06.748Z,22.04
2018-05-01T17:17:07.435Z,22.18
2018-05-01T17:18:08.137Z,22.07
2018-05-01T17:19:08.825Z,21.92
2018-05-01T17:20:09.507Z,21.54
2018-05-01T17:21:10.200Z,21.66
2018-05-01T17:22:10.885Z,21.67
2018-05-01T17:23:11.567Z,21.46
2018-05-01T17:24:12.256Z,20.99
2018-05-01T17:25:12.948Z,21.15
2018-05-01T17:26:13.630Z,21.02
2018-05-01T17:27:14.317Z,20.99
2018-05-01T17:28:14.997Z,20.99
2018-05-01T17:29:15.764Z,20.92
2018-05-01T17:30:16.415Z,20.99
2018-05-01T17:31:17.095Z,20.92
2018-05-01T17:32:17.783Z,20.99
2018-05-01T17:33:18.473Z,21.15
2018-05-01T17:34:19.163Z,20.85
2018-05-01T17:35:19.842Z,20.60
2018-05-01T17:36:20.529Z,20.69
2018-05-01T17:37:21.212Z,20.72
2018-05-01T17:38:21.907Z,20.70
2018-05-01T17:39:22.597Z,20.74
2018-05-01T17:40:23.289Z,20.66
2018-05-01T17:41:23.981Z,20.52
2018-05-01T17:42:24.665Z,20.63
2018-05-01T17:43:25.350Z,20.48
2018-05-01T17:44:26.095Z,20.36
2018-05-01T17:45:26.719Z,20.39
2018-05-01T17:46:27.398Z,20.28
2018-05-01T17:47:28.088Z,20.25
2018-05-01T17:48:28.778Z,20.16
2018-05-01T17:49:29.465Z,20.09
2018-05-01T17:50:30.149Z,20.09
2018-05-01T17:51:30.834Z,20.02
2018-05-01T17:52:31.524Z,20.02
2018-05-01T17:53:32.201Z,19.84
2018-05-01T17:54:32.887Z,19.84
2018-05-01T17:55:33.571Z,19.91
2018-05-01T17:56:34.252Z,19.82
2018-05-01T17:57:34.949Z,19.71
2018-05-01T17:58:35.629Z,19.66
2018-05-01T17:59:36.315Z,19.63
2018-05-01T18:00:37.003Z,19.54
2018-05-01T18:01:37.685Z,19.41
2018-05-01T18:02:38.365Z,19.34
2018-05-01T18:03:39.044Z,19.16
2018-05-01T18:04:39.728Z,19.00
2018-05-01T18:05:40.426Z,18.89
2018-05-01T18:06:41.115Z,18.88
2018-05-01T18:07:41.791Z,18.89
2018-05-01T18:08:42.477Z,18.78
2018-05-01T18:09:43.156Z,18.70
2018-05-01T18:10:43.847Z,18.63
2018-05-01T18:11:44.520Z,18.58
2018-05-01T18:12:45.212Z,18.60
2018-05-01T18:13:45.898Z,18.58
2018-05-01T18:14:46.600Z,18.50
2018-05-01T18:15:47.323Z,18.60
2018-05-01T18:16:47.976Z,18.37
2018-05-01T18:17:48.686Z,18.40
2018-05-01T18:18:49.367Z,18.45
2018-05-01T18:19:50.048Z,18.37
2018-05-01T18:20:50.735Z,18.41
2018-05-01T18:21:51.419Z,18.25
2018-05-01T18:22:52.096Z,18.18
2018-05-01T18:23:52.774Z,18.10
2018-05-01T18:24:53.458Z,17.95
2018-05-01T18:25:54.135Z,18.07
2018-05-01T18:26:54.854Z,17.95
2018-05-01T18:27:55.532Z,17.94
2018-05-01T18:28:56.224Z,17.97
2018-05-01T18:29:56.907Z,17.97
2018-05-01T18:30:57.582Z,17.83
2018-05-01T18:31:58.280Z,17.82
2018-05-01T18:32:58.960Z,17.79
2018-05-01T18:33:59.643Z,17.79
2018-05-01T18:35:00.314Z,17.65
2018-05-01T18:36:01.005Z,17.65
2018-05-01T18:37:01.683Z,17.52
2018-05-01T18:38:02.373Z,17.60
2018-05-01T18:39:03.060Z,17.57
2018-05-01T18:40:03.740Z,17.38
2018-05-01T18:41:04.416Z,17.11
2018-05-01T18:42:05.094Z,17.06
2018-05-01T18:43:05.785Z,17.05
2018-05-01T18:44:06.461Z,17.01
2018-05-01T18:45:07.159Z,16.93
2018-05-01T18:46:07.834Z,16.83
2018-05-01T18:47:08.512Z,16.83
2018-05-01T18:48:09.203Z,16.81
2018-05-01T18:49:09.880Z,16.79
2018-05-01T18:50:10.555Z,16.71
2018-05-01T18:51:11.240Z,16.58
2018-05-01T18:52:11.925Z,16.49
2018-05-01T18:53:12.601Z,16.51
2018-05-01T18:54:13.283Z,16.43
2018-05-01T18:55:13.987Z,16.35
2018-05-01T18:56:14.668Z,16.32
2018-05-01T18:57:15.358Z,16.21
2018-05-01T18:58:16.049Z,16.26
2018-05-01T18:59:16.732Z,16.16
2018-05-01T19:00:17.461Z,16.08
2018-05-01T19:01:18.110Z,16.01
2018-05-01T19:02:18.784Z,16.05
2018-05-01T19:03:19.474Z,16.02
2018-05-01T19:04:20.195Z,15.88
2018-05-01T19:05:20.824Z,15.91
2018-05-01T19:06:21.412Z,15.94
2018-05-01T19:07:22.196Z,15.83
2018-05-01T19:08:22.876Z,15.97
2018-05-01T19:09:23.622Z,15.91
2018-05-01T19:10:24.315Z,15.86
2018-05-01T19:11:24.932Z,15.79
2018-05-01T19:12:25.607Z,15.68
2018-05-01T19:13:26.286Z,15.64
2018-05-01T19:14:26.968Z,15.64
2018-05-01T19:15:27.671Z,15.59
2018-05-01T19:16:28.330Z,15.62
2018-05-01T19:17:29.019Z,15.58
2018-05-01T19:18:29.696Z,15.58
2018-05-01T19:19:30.374Z,15.49
2018-05-01T19:20:31.067Z,15.33
2018-05-01T19:21:31.764Z,15.37
2018-05-01T19:22:32.446Z,15.36
2018-05-01T19:23:33.111Z,15.33
2018-05-01T19:24:33.787Z,15.24
2018-05-01T19:25:34.474Z,15.18
2018-05-01T19:26:35.160Z,15.11
2018-05-01T19:27:35.833Z,15.14
2018-05-01T19:28:36.513Z,15.09
2018-05-01T19:29:37.187Z,15.11
2018-05-01T19:30:37.866Z,15.15
2018-05-01T19:31:38.550Z,15.04
2018-05-01T19:32:39.231Z,15.09
2018-05-01T19:33:39.899Z,14.92
2018-05-01T19:34:40.584Z,14.89
2018-05-01T19:35:41.261Z,14.94
2018-05-01T19:36:41.937Z,14.91
2018-05-01T19:37:42.618Z,14.85
2018-05-01T19:38:43.305Z,14.77
2018-05-01T19:39:43.982Z,14.85
2018-05-01T19:40:44.673Z,14.70
2018-05-01T19:41:45.346Z,14.63
2018-05-01T19:42:46.039Z,14.60
2018-05-01T19:43:46.710Z,14.44
2018-05-01T19:44:47.386Z,14.41
2018-05-01T19:45:48.069Z,14.44
2018-05-01T19:46:48.759Z,14.41
2018-05-01T19:47:49.439Z,14.41
2018-05-01T19:48:50.127Z,14.41
2018-05-01T19:49:50.818Z,14.33
2018-05-01T19:50:51.556Z,14.33
2018-05-01T19:51:52.169Z,14.35
2018-05-01T19:52:52.849Z,14.28
2018-05-01T19:53:53.542Z,14.20
2018-05-01T19:54:54.219Z,14.08
2018-05-01T19:55:54.902Z,14.23
2018-05-01T19:56:55.577Z,14.08
2018-05-01T19:57:56.253Z,14.15
2018-05-01T19:58:56.951Z,14.17
2018-05-01T19:59:57.623Z,14.12
2018-05-01T20:00:58.299Z,14.15
2018-05-01T20:01:58.982Z,14.12
2018-05-01T20:02:59.657Z,14.07
2018-05-01T20:04:00.332Z,14.11
2018-05-01T20:05:01.004Z,14.04
2018-05-01T20:06:01.681Z,14.07
2018-05-01T20:07:02.361Z,14.03
2018-05-01T20:08:03.030Z,13.95
2018-05-01T20:09:03.710Z,13.99
2018-05-01T20:10:04.379Z,13.83
2018-05-01T20:11:05.060Z,13.86
2018-05-01T20:12:05.728Z,13.85
2018-05-01T20:13:06.406Z,13.70
2018-05-01T20:14:07.082Z,13.57
2018-05-01T20:15:07.761Z,13.63
2018-05-01T20:16:08.439Z,13.54
2018-05-01T20:17:09.120Z,13.47
2018-05-01T20:18:09.791Z,13.54
2018-05-01T20:19:10.469Z,13.54
2018-05-01T20:20:11.159Z,13.52
2018-05-01T20:21:11.835Z,13.50
2018-05-01T20:22:12.514Z,13.47
2018-05-01T20:23:13.202Z,13.42
2018-05-01T20:24:13.862Z,13.41
2018-05-01T20:25:14.536Z,13.41
2018-05-01T20:26:15.207Z,13.30
2018-05-01T20:27:15.885Z,13.39
2018-05-01T20:28:16.562Z,13.28
2018-05-01T20:29:17.239Z,13.33
2018-05-01T20:30:17.977Z,13.30
2018-05-01T20:31:18.583Z,13.39
2018-05-01T20:32:19.265Z,13.33
2018-05-01T20:33:19.943Z,13.38
2018-05-01T20:34:20.617Z,13.41
2018-05-01T20:35:21.296Z,13.33
2018-05-01T20:36:21.969Z,13.25
2018-05-01T20:37:22.718Z,13.22
2018-05-01T20:38:23.318Z,13.23
2018-05-01T20:39:23.999Z,13.11
2018-05-01T20:40:24.688Z,13.09
2018-05-01T20:41:25.362Z,13.09
2018-05-01T20:42:26.031Z,13.13
2018-05-01T20:43:26.707Z,13.04
2018-05-01T20:44:27.447Z,12.97
2018-05-01T20:45:28.056Z,12.97
2018-05-01T20:46:28.729Z,12.94
2018-05-01T20:47:29.396Z,12.87
2018-05-01T20:48:30.065Z,12.85
2018-05-01T20:49:30.749Z,12.76
2018-05-01T20:50:31.421Z,12.67
2018-05-01T20:51:32.102Z,12.65
2018-05-01T20:52:32.783Z,12.68
2018-05-01T20:53:33.457Z,12.64
2018-05-01T20:54:34.128Z,12.68
2018-05-01T20:55:34.809Z,12.65
2018-05-01T20:56:35.516Z,12.61
2018-05-01T20:57:36.173Z,12.37
2018-05-01T20:58:36.849Z,12.37
2018-05-01T20:59:37.520Z,12.49
2018-05-01T21:00:38.194Z,12.42
2018-05-01T21:01:38.869Z,12.47
2018-05-01T21:02:39.545Z,12.39
2018-05-01T21:03:40.217Z,12.40
2018-05-01T21:04:40.894Z,12.50
2018-05-01T21:05:41.575Z,12.45
2018-05-01T21:06:42.246Z,12.43
2018-05-01T21:07:42.922Z,12.42
2018-05-01T21:08:43.594Z,12.24
2018-05-01T21:09:44.270Z,12.31
2018-05-01T21:10:44.938Z,12.37
2018-05-01T21:11:45.610Z,12.20
2018-05-01T21:12:46.280Z,12.09
2018-05-01T21:13:46.955Z,12.22
2018-05-01T21:14:47.625Z,12.12
2018-05-01T21:15:48.297Z,12.18
2018-05-01T21:16:48.971Z,12.03
2018-05-01T21:17:49.643Z,12.02
2018-05-01T21:18:50.312Z,12.18
2018-05-01T21:19:50.985Z,11.97
2018-05-01T21:20:51.657Z,11.94
2018-05-01T21:21:52.330Z,11.91
2018-05-01T21:22:53.000Z,11.94
2018-05-01T21:23:53.674Z,11.91
2018-05-01T21:24:54.349Z,11.91
2018-05-01T21:25:55.021Z,11.88
2018-05-01T21:26:55.691Z,11.88
2018-05-01T21:27:56.365Z,11.94
2018-05-01T21:28:57.130Z,11.88
2018-05-01T21:29:57.704Z,11.91
2018-05-01T21:30:58.385Z,11.87
2018-05-01T21:31:59.059Z,11.88
2018-05-01T21:32:59.726Z,11.95
2018-05-01T21:34:00.400Z,11.90
2018-05-01T21:35:01.074Z,11.97
2018-05-01T21:36:01.746Z,11.91
2018-05-01T21:37:02.418Z,11.84
2018-05-01T21:38:03.094Z,11.88
2018-05-01T21:39:03.766Z,11.86
2018-05-01T21:40:04.440Z,11.88
2018-05-01T21:41:05.117Z,11.81
2018-05-01T21:42:05.798Z,11.80
2018-05-01T21:43:06.499Z,11.80
2018-05-01T21:44:07.147Z,11.69
2018-05-01T21:45:07.820Z,11.68
2018-05-01T21:46:08.490Z,11.65
2018-05-01T21:47:09.159Z,11.59
2018-05-01T21:48:09.829Z,11.59
2018-05-01T21:49:10.501Z,11.36
2018-05-01T21:50:11.235Z,11.27
2018-05-01T21:51:11.881Z,11.30
2018-05-01T21:52:12.513Z,11.27
2018-05-01T21:53:13.183Z,11.35
2018-05-01T21:54:13.855Z,11.36
2018-05-01T21:55:14.525Z,11.29
2018-05-01T21:56:15.194Z,11.27
2018-05-01T21:57:15.963Z,11.25
2018-05-01T21:58:16.538Z,11.25
2018-05-01T21:59:17.214Z,11.29
2018-05-01T22:00:17.884Z,11.25
2018-05-01T22:01:18.555Z,11.29
2018-05-01T22:02:19.227Z,11.32
2018-05-01T22:03:19.899Z,11.15
2018-05-01T22:04:20.570Z,11.25
2018-05-01T22:05:21.240Z,11.14
2018-05-01T22:06:21.924Z,11.23
2018-05-01T22:07:22.589Z,11.26
2018-05-01T22:08:23.260Z,11.25
2018-05-01T22:09:23.940Z,11.12
2018-05-01T22:10:24.611Z,11.29
2018-05-01T22:11:25.283Z,11.15
2018-05-01T22:12:25.960Z,11.14